Fishburn, United Kingdom
Current Conditions -  °F | °C
As of 5:50 PM on Friday 28 Nov 2014 (Local Time) from EGNV Reporting Station
Haze Haze  
Wind Chill: 50°   Ceiling: 700
Heat Index: 50°   Visibility: 3mi
Dew Point: 48°   Wind: 12mph
Humidity: 94%   Direction: 70°ENE
Pressure: 29.8"   Gusts: NA
Location:  54.68°N, 1.44°W
Report Text: EGNV 281750Z 07010KT 5000 HZ BKN007 10/09 Q1009
Loading
Personal Weather Stations






























Interactive Weather Map New forecast layout! Learn more

10-Day Weather Forecast

Advertisements
Track Severe Weather on mobile